Weather at Snohomish County (Paine Field) Airport

Public forecast

Using degrees Fahrenheit for public forecast. Weather courtesy of forecast.io.

Current aviation weather report (METAR) for Snohomish County (Paine Field) Airport

Retrieved 2020/11/23 17:53 UTC (35 minutes ago):

KPAE 231753Z 15008KT 4SM -RA BR SCT003 BKN008 OVC013 06/04 A2997 RMK AO2 SLP153 P0000 60015 T00560044 10056 20044 53022

Aviation forecast (TAF) for Snohomish County (Paine Field) Airport

Retrieved 2020/11/23 18:22 UTC (6 minutes ago):

TAF KPAE 231720Z 2318/2418 VRB04KT P6SM SCT008 OVC020 TEMPO 2318/2322 4SM -SHRA BR BKN005 OVC015 FM232200 VRB04KT P6SM VCSH BKN015 BKN030 FM240600 16006KT P6SM BKN025 FM241200 16008KT P6SM OVC025